Time;durP1;ratioP1;P1;durP2;ratioP2;P2;SDS_P1;SDS_P2;PMS_P1;PMS_P2;Temp;Humidity;BMP_temperature;BMP_pressure;BME280_temperature;BME280_humidity;BME280_pressure;Samples;Min_cycle;Max_cycle;Signal;HPM_P1;HPM_P2
2021/04/03 00:00:44;;;;;;;20.30;8.20;;;5.40;97.30;;;;;;5037336;28;20171;-86
2021/04/03 00:03:11;;;;;;;18.77;5.73;;;5.40;97.30;;;;;;5036748;28;20461;-85
2021/04/03 00:05:38;;;;;;;15.67;6.40;;;5.40;97.30;;;;;;5037026;28;20484;-84
2021/04/03 00:08:05;;;;;;;23.67;7.53;;;5.40;97.30;;;;;;5054670;28;20426;-85
2021/04/03 00:10:42;;;;;;;16.97;6.07;;;5.30;97.30;;;;;;5036408;28;20410;-85
2021/04/03 00:13:08;;;;;;;16.83;6.90;;;5.30;97.30;;;;;;5040091;28;20438;-85
2021/04/03 00:15:34;;;;;;;23.67;6.97;;;5.30;97.30;;;;;;5036830;28;20517;-85
2021/04/03 00:18:00;;;;;;;25.93;7.47;;;5.30;97.30;;;;;;5036167;28;20568;-85
2021/04/03 00:20:30;;;;;;;21.00;7.40;;;5.20;97.30;;;;;;5036815;28;20183;-85
2021/04/03 00:22:56;;;;;;;21.03;7.20;;;5.20;97.30;;;;;;5035840;28;20176;-85
2021/04/03 00:25:22;;;;;;;24.93;7.73;;;5.20;97.30;;;;;;5027701;28;20444;-85
2021/04/03 00:27:47;;;;;;;15.70;7.47;;;5.20;97.30;;;;;;5036238;28;20418;-85
2021/04/03 00:30:19;;;;;;;18.60;8.00;;;5.20;97.30;;;;;;5035356;28;20183;-85
2021/04/03 00:33:07;;;;;;;19.70;7.40;;;5.20;97.30;;;;;;5036788;28;20278;-85
2021/04/03 00:45:53;;;;;;;21.10;8.67;;;5.20;97.30;;;;;;5063082;28;20485;-84
2021/04/03 00:48:19;;;;;;;19.03;7.33;;;5.20;97.30;;;;;;5052977;28;20433;-84
2021/04/03 00:50:54;;;;;;;29.77;8.97;;;5.20;97.30;;;;;;5054497;28;20418;-84
2021/04/03 00:53:30;;;;;;;22.17;7.73;;;5.20;97.30;;;;;;5035739;28;20897;-85
2021/04/03 00:56:01;;;;;;;23.00;7.43;;;5.20;97.30;;;;;;5034821;28;20533;-85
2021/04/03 00:58:27;;;;;;;28.27;8.20;;;5.20;97.30;;;;;;5047690;23;21016;-86
2021/04/03 01:00:52;;;;;;;28.57;8.13;;;5.20;97.30;;;;;;5011398;28;20416;-86
2021/04/03 01:03:18;;;;;;;23.07;7.70;;;5.20;97.30;;;;;;5012875;28;20173;-87
2021/04/03 01:05:44;;;;;;;32.47;10.03;;;5.20;97.30;;;;;;5013008;28;20240;-86
2021/04/03 01:08:11;;;;;;;24.10;7.70;;;5.20;97.30;;;;;;5015731;28;20700;-86
2021/04/03 01:10:41;;;;;;;23.57;7.53;;;5.20;97.30;;;;;;5032555;28;20185;-87
2021/04/03 01:13:26;;;;;;;23.80;8.07;;;5.20;97.30;;;;;;5032388;28;20416;-87
2021/04/03 01:16:08;;;;;;;28.93;8.00;;;5.10;97.30;;;;;;5034031;28;20395;-86
2021/04/03 01:18:57;;;;;;;27.50;7.87;;;5.10;97.30;;;;;;5027234;28;20446;-86
2021/04/03 01:21:41;;;;;;;18.47;6.77;;;5.10;97.30;;;;;;5013491;28;20420;-86
2021/04/03 01:24:36;;;;;;;37.40;7.93;;;5.00;97.30;;;;;;5012565;28;20420;-86
2021/04/03 01:27:20;;;;;;;23.93;7.30;;;5.00;97.30;;;;;;5013366;28;20421;-87
2021/04/03 01:30:03;;;;;;;17.77;7.63;;;5.10;97.30;;;;;;5023816;28;20423;-87
2021/04/03 01:33:01;;;;;;;27.50;7.90;;;5.10;97.30;;;;;;5027223;28;20427;-86
2021/04/03 01:35:47;;;;;;;18.63;7.43;;;5.10;97.30;;;;;;4979417;28;20428;-86
2021/04/03 01:38:23;;;;;;;19.23;6.73;;;5.10;97.30;;;;;;5012257;28;20871;-87
2021/04/03 01:40:51;;;;;;;21.30;7.07;;;5.10;97.30;;;;;;5031042;28;20423;-86
2021/04/03 01:43:21;;;;;;;28.63;7.80;;;5.10;97.30;;;;;;5032428;28;20970;-87
2021/04/03 01:45:50;;;;;;;20.20;7.90;;;5.10;97.30;;;;;;5032821;28;20502;-86
2021/04/03 01:48:17;;;;;;;20.70;7.33;;;5.10;97.30;;;;;;5143126;23;20540;-88
2021/04/03 01:50:44;;;;;;;27.00;8.03;;;5.20;97.30;;;;;;5036270;28;20427;-87
2021/04/03 01:53:10;;;;;;;21.57;7.37;;;5.20;97.30;;;;;;5021615;28;20816;-88
2021/04/03 01:55:37;;;;;;;16.13;7.20;;;5.20;97.30;;;;;;4980140;28;20486;-89
2021/04/03 01:58:04;;;;;;;35.80;9.57;;;5.20;97.30;;;;;;4999839;28;20427;-87
2021/04/03 02:00:32;;;;;;;29.07;8.13;;;5.20;97.30;;;;;;5016068;28;20420;-88
2021/04/03 02:02:58;;;;;;;28.80;8.83;;;5.20;97.30;;;;;;5068368;23;20903;-86
2021/04/03 02:05:25;;;;;;;31.07;8.53;;;5.20;97.30;;;;;;5050670;28;20457;-84
2021/04/03 02:07:51;;;;;;;28.00;7.70;;;5.20;97.30;;;;;;5050555;28;20454;-86
2021/04/03 02:10:22;;;;;;;27.53;7.47;;;5.20;97.30;;;;;;5051241;28;20413;-86
2021/04/03 02:12:48;;;;;;;23.70;7.57;;;5.20;97.30;;;;;;5035849;28;21074;-86
2021/04/03 02:15:15;;;;;;;26.27;8.53;;;5.20;97.30;;;;;;5030996;28;20458;-86
2021/04/03 02:17:48;;;;;;;22.23;8.00;;;5.20;97.30;;;;;;5031367;28;20439;-84
2021/04/03 02:20:14;;;;;;;19.33;6.93;;;5.20;97.30;;;;;;5032653;28;20411;-86
2021/04/03 02:22:41;;;;;;;26.10;9.20;;;5.20;97.30;;;;;;5052064;28;20490;-86
2021/04/03 02:25:10;;;;;;;32.23;8.17;;;5.20;97.30;;;;;;5054440;28;20459;-86
2021/04/03 02:27:36;;;;;;;23.60;6.90;;;5.20;97.30;;;;;;5054443;28;20767;-86
2021/04/03 02:30:15;;;;;;;19.40;7.33;;;5.20;97.30;;;;;;5036948;28;20962;-86
2021/04/03 02:32:49;;;;;;;19.40;7.27;;;5.20;97.30;;;;;;5031728;28;20478;-84
2021/04/03 02:35:17;;;;;;;26.03;8.30;;;5.20;97.30;;;;;;5031244;28;20466;-85
2021/04/03 02:37:45;;;;;;;28.50;7.93;;;5.20;97.30;;;;;;5011018;28;20482;-86
2021/04/03 02:40:13;;;;;;;31.40;7.00;;;5.20;97.30;;;;;;5011685;28;20412;-86
2021/04/03 02:43:03;;;;;;;14.53;7.03;;;5.20;97.30;;;;;;5029966;28;20469;-84
2021/04/03 02:45:37;;;;;;;22.07;7.00;;;5.20;97.30;;;;;;5030673;28;20435;-86
2021/04/03 02:48:09;;;;;;;24.80;6.63;;;5.10;97.30;;;;;;5014498;28;20846;-86
2021/04/03 02:50:41;;;;;;;25.17;7.30;;;5.10;97.30;;;;;;5010772;28;20435;-86
2021/04/03 02:53:13;;;;;;;23.97;6.70;;;5.10;97.30;;;;;;5011074;28;20459;-85
2021/04/03 02:55:49;;;;;;;31.80;8.37;;;5.10;97.30;;;;;;5012934;28;20506;-86
2021/04/03 02:58:18;;;;;;;27.80;7.93;;;5.00;97.30;;;;;;5030677;28;20915;-86
2021/04/03 03:00:46;;;;;;;21.57;6.47;;;5.00;97.30;;;;;;5031785;28;20408;-84
2021/04/03 03:03:13;;;;;;;17.10;6.90;;;5.00;97.30;;;;;;5029562;28;20883;-85
2021/04/03 03:05:41;;;;;;;26.60;7.60;;;4.90;97.30;;;;;;5030176;28;20994;-86
2021/04/03 03:08:09;;;;;;;18.83;6.73;;;4.90;97.30;;;;;;5030782;28;20411;-86
2021/04/03 03:10:36;;;;;;;20.37;7.10;;;4.90;97.30;;;;;;5014820;28;20464;-86
2021/04/03 03:13:03;;;;;;;29.27;6.90;;;4.90;97.30;;;;;;5031544;28;20438;-86
2021/04/03 03:15:31;;;;;;;21.10;6.70;;;4.80;97.30;;;;;;5031385;28;20454;-86
2021/04/03 03:17:57;;;;;;;22.37;6.40;;;4.80;97.30;;;;;;5031987;28;20464;-86
2021/04/03 03:20:23;;;;;;;29.47;7.53;;;4.80;97.30;;;;;;5031487;28;20500;-86
2021/04/03 03:22:49;;;;;;;21.20;7.40;;;4.80;97.30;;;;;;5031710;28;20488;-86
2021/04/03 03:25:15;;;;;;;29.40;7.70;;;4.80;97.30;;;;;;5033041;28;20180;-85
2021/04/03 03:27:46;;;;;;;24.13;8.57;;;4.80;97.30;;;;;;5031268;28;20442;-85
2021/04/03 03:30:15;;;;;;;28.83;7.97;;;4.80;97.30;;;;;;5032017;28;20760;-86
2021/04/03 03:32:41;;;;;;;24.37;8.40;;;4.80;97.30;;;;;;5028679;28;20543;-85
2021/04/03 03:35:08;;;;;;;26.50;8.40;;;4.70;97.30;;;;;;5013228;28;20486;-86
2021/04/03 03:37:34;;;;;;;21.60;8.10;;;4.70;97.30;;;;;;5029841;28;20554;-86
2021/04/03 03:40:02;;;;;;;20.93;6.37;;;4.70;97.30;;;;;;5032064;28;20465;-86
2021/04/03 03:42:28;;;;;;;21.33;6.67;;;4.70;97.30;;;;;;5032162;28;20458;-86
2021/04/03 03:44:54;;;;;;;26.03;7.30;;;4.70;97.30;;;;;;5031861;28;20989;-86
2021/04/03 03:47:20;;;;;;;32.93;8.20;;;4.60;97.30;;;;;;5021401;28;20428;-86
2021/04/03 03:49:46;;;;;;;33.50;8.30;;;4.60;97.30;;;;;;5011904;28;20836;-86
2021/04/03 03:52:12;;;;;;;24.73;6.90;;;4.60;97.30;;;;;;5012911;28;20880;-87
2021/04/03 03:54:38;;;;;;;21.87;7.60;;;4.60;97.30;;;;;;5011756;28;20299;-86
2021/04/03 03:57:04;;;;;;;32.43;7.60;;;4.60;97.30;;;;;;5022078;28;20469;-86
2021/04/03 03:59:30;;;;;;;25.17;6.70;;;4.60;97.30;;;;;;5033422;28;20200;-86
2021/04/03 04:01:56;;;;;;;33.67;7.37;;;4.50;97.30;;;;;;5031335;28;20459;-86
2021/04/03 04:04:22;;;;;;;24.17;7.63;;;4.50;97.30;;;;;;5034205;28;20176;-86
2021/04/03 04:06:48;;;;;;;23.27;7.10;;;4.50;97.30;;;;;;5034487;28;20570;-86
2021/04/03 04:09:13;;;;;;;21.13;6.47;;;4.50;97.30;;;;;;5036491;28;20176;-85
2021/04/03 04:11:39;;;;;;;22.97;6.33;;;4.50;97.30;;;;;;5034013;28;20200;-86
2021/04/03 04:14:05;;;;;;;21.77;7.37;;;4.40;97.30;;;;;;5033440;28;20291;-86
2021/04/03 04:16:30;;;;;;;25.00;7.10;;;4.40;97.30;;;;;;5033700;28;20168;-86
2021/04/03 04:18:56;;;;;;;20.70;8.17;;;4.30;97.30;;;;;;5033462;28;20267;-86
2021/04/03 04:21:24;;;;;;;24.83;6.73;;;4.30;97.30;;;;;;5034056;28;20204;-86
2021/04/03 04:23:50;;;;;;;19.80;6.33;;;4.30;97.30;;;;;;5032923;28;20207;-86
2021/04/03 04:26:16;;;;;;;28.60;6.70;;;4.20;97.30;;;;;;5033017;28;20947;-86
2021/04/03 04:28:42;;;;;;;28.00;7.40;;;4.20;97.30;;;;;;5033787;28;20184;-86
2021/04/03 04:31:07;;;;;;;21.30;6.00;;;4.20;97.30;;;;;;5033181;28;20414;-86
2021/04/03 04:33:33;;;;;;;30.53;8.50;;;4.10;97.30;;;;;;5034355;28;20201;-86
2021/04/03 04:35:59;;;;;;;27.70;7.40;;;4.10;97.30;;;;;;5031820;28;20203;-86
2021/04/03 04:38:25;;;;;;;19.00;6.57;;;4.10;97.30;;;;;;5032647;28;20177;-84
2021/04/03 04:40:51;;;;;;;25.00;7.10;;;4.10;97.30;;;;;;5032347;28;20473;-86
2021/04/03 04:43:21;;;;;;;18.60;7.00;;;4.10;97.30;;;;;;5032449;28;20529;-86
2021/04/03 04:45:47;;;;;;;24.53;7.27;;;4.10;97.30;;;;;;5032268;28;20411;-86
2021/04/03 04:48:13;;;;;;;23.07;6.30;;;4.10;97.30;;;;;;5014949;28;20998;-86
2021/04/03 04:50:38;;;;;;;30.97;7.70;;;4.10;97.30;;;;;;5012199;28;20416;-86
2021/04/03 04:53:06;;;;;;;17.90;7.00;;;4.00;97.30;;;;;;5012705;28;20436;-86
2021/04/03 04:55:33;;;;;;;22.40;8.90;;;4.00;97.30;;;;;;5020916;28;20266;-85
2021/04/03 04:57:58;;;;;;;29.77;6.40;;;4.00;97.30;;;;;;5033523;28;20411;-86
2021/04/03 05:00:24;;;;;;;19.60;6.77;;;4.00;97.30;;;;;;5031516;28;20423;-87
2021/04/03 05:02:50;;;;;;;29.37;6.77;;;4.00;97.30;;;;;;5029909;28;20310;-86
2021/04/03 05:05:18;;;;;;;17.80;6.87;;;4.00;97.30;;;;;;5032370;28;20855;-86
2021/04/03 05:07:44;;;;;;;24.67;7.00;;;4.00;97.30;;;;;;5036502;28;20187;-86
2021/04/03 05:10:12;;;;;;;17.20;6.73;;;4.00;97.30;;;;;;5023682;28;20432;-85
2021/04/03 05:12:37;;;;;;;24.27;7.80;;;4.00;97.30;;;;;;5031145;28;20247;-85
2021/04/03 05:15:04;;;;;;;37.97;8.17;;;4.00;97.30;;;;;;5030151;28;20483;-85
2021/04/03 05:17:30;;;;;;;33.33;7.30;;;4.00;97.30;;;;;;5030514;28;20177;-86
2021/04/03 05:19:56;;;;;;;21.63;6.40;;;4.00;97.30;;;;;;5024670;28;20419;-85
2021/04/03 05:22:22;;;;;;;25.60;6.43;;;4.00;97.30;;;;;;5040474;23;20232;-71
2021/04/03 05:24:48;;;;;;;21.93;7.03;;;3.90;97.30;;;;;;5035165;28;20450;-70
2021/04/03 05:27:13;;;;;;;27.70;7.83;;;3.90;97.30;;;;;;5034846;28;20962;-71
2021/04/03 05:29:39;;;;;;;25.43;8.53;;;3.90;97.30;;;;;;5035049;28;20825;-70
2021/04/03 05:32:06;;;;;;;25.13;7.00;;;3.90;97.30;;;;;;5034385;28;20206;-70
2021/04/03 05:34:32;;;;;;;40.73;9.50;;;3.90;97.30;;;;;;5024416;28;20192;-70
2021/04/03 05:36:58;;;;;;;26.43;7.23;;;3.90;97.30;;;;;;5032480;28;20418;-71
2021/04/03 05:39:23;;;;;;;23.43;7.37;;;3.90;97.30;;;;;;5051105;28;20414;-70
2021/04/03 05:41:49;;;;;;;31.20;8.03;;;3.90;97.30;;;;;;5033396;28;20198;-71
2021/04/03 05:44:15;;;;;;;25.43;7.10;;;3.90;97.30;;;;;;5031587;28;20206;-71
2021/04/03 05:46:43;;;;;;;25.50;7.70;;;4.00;97.30;;;;;;5043606;28;20180;-70
2021/04/03 05:49:10;;;;;;;22.77;7.40;;;3.90;97.30;;;;;;5017475;28;20473;-71
2021/04/03 05:51:37;;;;;;;32.97;8.57;;;4.00;97.30;;;;;;5020618;28;20438;-71
2021/04/03 05:54:04;;;;;;;22.60;7.30;;;4.00;97.30;;;;;;5047411;28;20525;-71
2021/04/03 05:56:31;;;;;;;34.67;9.37;;;3.90;97.30;;;;;;5019227;28;20784;-71
2021/04/03 05:58:57;;;;;;;25.43;8.23;;;4.00;97.30;;;;;;4998768;28;20426;-73
2021/04/03 06:01:23;;;;;;;28.90;7.43;;;3.90;97.30;;;;;;5026380;28;20430;-73
2021/04/03 06:03:49;;;;;;;21.70;7.30;;;3.90;97.30;;;;;;5034692;28;20176;-73
2021/04/03 06:06:16;;;;;;;28.83;7.67;;;3.90;97.30;;;;;;5034765;28;20413;-72
2021/04/03 06:08:42;;;;;;;27.47;7.07;;;3.90;97.30;;;;;;5053122;28;20430;-72
2021/04/03 06:11:11;;;;;;;24.07;7.93;;;3.90;97.30;;;;;;5031805;28;20509;-72
2021/04/03 06:13:38;;;;;;;32.40;6.60;;;4.00;97.30;;;;;;5035532;28;20210;-71
2021/04/03 06:16:23;;;;;;;23.20;7.03;;;3.90;97.30;;;;;;5014819;28;20506;-73
2021/04/03 06:18:49;;;;;;;27.63;6.90;;;3.90;97.30;;;;;;5041817;28;20773;-75
2021/04/03 06:21:15;;;;;;;29.13;6.93;;;3.90;97.30;;;;;;5034053;28;20430;-72
2021/04/03 06:23:40;;;;;;;24.47;8.10;;;4.00;97.30;;;;;;5051856;28;20163;-72
2021/04/03 06:26:06;;;;;;;28.73;7.53;;;3.90;97.30;;;;;;5033517;28;20211;-72
2021/04/03 06:28:33;;;;;;;29.27;7.90;;;4.00;97.30;;;;;;5016237;28;20623;-74
2021/04/03 06:31:13;;;;;;;23.90;7.23;;;4.00;97.30;;;;;;5035655;28;20434;-72
2021/04/03 06:33:39;;;;;;;29.57;8.17;;;4.00;97.30;;;;;;5013838;28;20514;-72
2021/04/03 06:36:09;;;;;;;23.77;7.50;;;4.00;97.30;;;;;;5049103;28;20447;-74
2021/04/03 06:38:35;;;;;;;20.40;7.60;;;4.00;97.30;;;;;;5052449;28;20489;-72
2021/04/03 06:41:25;;;;;;;27.27;9.07;;;4.10;97.30;;;;;;5031113;28;20447;-72
2021/04/03 06:44:19;;;;;;;30.13;8.50;;;4.10;97.30;;;;;;5025725;28;20426;-75
2021/04/03 06:46:54;;;;;;;36.87;9.13;;;4.10;97.30;;;;;;5044302;28;20422;-74
2021/04/03 06:49:21;;;;;;;32.20;8.43;;;4.10;97.30;;;;;;5033012;28;20441;-74
2021/04/03 06:51:46;;;;;;;22.23;7.80;;;4.10;97.30;;;;;;5049257;28;20513;-74
2021/04/03 06:54:13;;;;;;;27.33;8.77;;;4.10;97.30;;;;;;5049795;28;20890;-74
2021/04/03 06:56:39;;;;;;;31.80;8.40;;;4.10;97.30;;;;;;5050989;28;20164;-73
2021/04/03 06:59:10;;;;;;;29.83;9.70;;;4.10;97.30;;;;;;5050893;28;20406;-73
2021/04/03 07:01:49;;;;;;;18.57;8.07;;;4.10;97.30;;;;;;5037856;28;20502;-73
2021/04/03 07:04:20;;;;;;;28.90;9.03;;;4.20;97.30;;;;;;5013493;28;20411;-74
2021/04/03 07:06:49;;;;;;;24.90;9.40;;;4.20;97.30;;;;;;5013268;28;21024;-74
2021/04/03 07:09:16;;;;;;;27.23;8.63;;;4.30;97.30;;;;;;5012957;28;20510;-74
2021/04/03 07:11:42;;;;;;;22.93;7.87;;;4.40;97.30;;;;;;5031397;28;20649;-74
2021/04/03 07:14:09;;;;;;;27.40;8.90;;;4.40;97.30;;;;;;5012955;28;20473;-74
2021/04/03 07:16:36;;;;;;;23.10;10.37;;;4.40;97.30;;;;;;5030490;28;20412;-74
2021/04/03 07:19:04;;;;;;;27.77;8.70;;;4.40;97.30;;;;;;5013298;28;21013;-74
2021/04/03 07:21:30;;;;;;;21.60;9.57;;;4.50;97.30;;;;;;5014106;28;20487;-74
2021/04/03 07:23:59;;;;;;;27.47;8.77;;;4.60;97.30;;;;;;5014474;28;20623;-74
2021/04/03 07:26:25;;;;;;;24.87;9.80;;;4.60;97.30;;;;;;5013880;28;20411;-74
2021/04/03 07:28:51;;;;;;;32.33;9.07;;;4.60;97.30;;;;;;5021103;28;20986;-73
2021/04/03 07:31:38;;;;;;;19.43;9.20;;;4.70;97.30;;;;;;5049408;28;20426;-73
2021/04/03 07:34:04;;;;;;;22.07;8.70;;;4.80;97.30;;;;;;5049947;28;20195;-74
2021/04/03 07:36:38;;;;;;;27.97;8.20;;;4.80;97.30;;;;;;5040370;28;20971;-73
2021/04/03 07:39:06;;;;;;;19.60;7.80;;;4.70;97.30;;;;;;5015211;28;20259;-74
2021/04/03 07:41:37;;;;;;;30.03;8.50;;;4.70;97.30;;;;;;5017208;28;20482;-73
2021/04/03 07:44:11;;;;;;;28.93;8.47;;;4.80;97.30;;;;;;5016722;28;20411;-74
2021/04/03 07:46:40;;;;;;;26.83;7.90;;;4.90;97.30;;;;;;5020432;28;20421;-75
2021/04/03 07:49:06;;;;;;;23.67;8.60;;;4.90;97.30;;;;;;5053298;28;20417;-74
2021/04/03 07:51:32;;;;;;;23.10;8.40;;;4.90;97.30;;;;;;5052922;28;20492;-74
2021/04/03 07:54:00;;;;;;;24.73;8.73;;;4.90;97.30;;;;;;5052604;28;20498;-75
2021/04/03 07:56:47;;;;;;;17.40;7.00;;;4.90;97.30;;;;;;5052941;28;20178;-74
2021/04/03 07:59:14;;;;;;;17.43;7.70;;;4.90;97.30;;;;;;5040671;28;20434;-73
2021/04/03 08:01:40;;;;;;;23.00;7.00;;;5.10;97.30;;;;;;5046340;28;21001;-74
2021/04/03 08:04:08;;;;;;;30.13;8.80;;;5.20;97.30;;;;;;5042936;28;20939;-74
2021/04/03 08:06:36;;;;;;;21.97;7.50;;;5.30;97.30;;;;;;5032552;28;20502;-73
2021/04/03 08:11:32;;;;;;;15.70;8.07;;;5.30;97.30;;;;;;5057018;28;20463;-86
2021/04/03 08:13:59;;;;;;;14.20;6.60;;;5.50;97.30;;;;;;5036605;28;20484;-86
2021/04/03 08:16:30;;;;;;;23.70;7.00;;;5.70;97.30;;;;;;5036660;28;20203;-86
2021/04/03 08:18:59;;;;;;;14.60;7.17;;;5.70;97.30;;;;;;5030251;28;20443;-86
2021/04/03 08:21:28;;;;;;;25.17;7.00;;;5.80;97.30;;;;;;5012244;28;20494;-87
2021/04/03 08:23:55;;;;;;;24.37;7.67;;;6.10;97.30;;;;;;5022665;28;20423;-88
2021/04/03 08:26:23;;;;;;;18.80;7.93;;;6.40;97.30;;;;;;5030316;28;20423;-87
2021/04/03 08:28:49;;;;;;;17.37;6.60;;;6.60;97.30;;;;;;5024159;28;20432;-86
2021/04/03 08:31:24;;;;;;;23.40;7.00;;;6.70;97.30;;;;;;5004605;28;20423;-86
2021/04/03 08:33:52;;;;;;;21.90;6.33;;;6.70;97.30;;;;;;5003294;28;20546;-86
2021/04/03 08:36:30;;;;;;;15.60;6.60;;;6.70;97.30;;;;;;5020238;28;20415;-86
2021/04/03 08:39:00;;;;;;;25.10;7.60;;;6.80;97.30;;;;;;5011435;28;20997;-86
2021/04/03 08:41:27;;;;;;;21.47;7.70;;;6.80;97.30;;;;;;5009566;28;20424;-86
2021/04/03 08:43:53;;;;;;;19.83;6.37;;;6.90;97.30;;;;;;5017190;28;20525;-88
2021/04/03 08:46:20;;;;;;;17.37;6.47;;;7.00;97.30;;;;;;5016803;28;20408;-88
2021/04/03 08:48:48;;;;;;;20.40;6.00;;;7.10;97.30;;;;;;5022830;28;20427;-86
2021/04/03 08:51:15;;;;;;;16.53;7.13;;;7.20;97.30;;;;;;5024213;28;20474;-88
2021/04/03 08:53:44;;;;;;;19.47;6.43;;;7.20;97.30;;;;;;5020876;28;20444;-88
2021/04/03 08:56:16;;;;;;;17.10;6.70;;;7.30;97.30;;;;;;5010438;28;20823;-89
2021/04/03 08:58:42;;;;;;;16.23;5.80;;;7.60;97.30;;;;;;5011811;28;20424;-86
2021/04/03 09:01:09;;;;;;;21.00;6.80;;;7.60;97.30;;;;;;5017349;28;20438;-90
2021/04/03 09:03:36;;;;;;;14.47;5.47;;;7.60;97.30;;;;;;5019792;28;20428;-90
2021/04/03 09:06:06;;;;;;;9.97;5.03;;;7.70;97.30;;;;;;5020232;28;20944;-89
2021/04/03 09:08:32;;;;;;;10.80;5.53;;;7.90;97.30;;;;;;5020375;28;20427;-88
2021/04/03 09:11:00;;;;;;;15.67;5.67;;;8.00;97.30;;;;;;5004975;28;20497;-91
2021/04/03 09:13:55;;;;;;;13.43;4.50;;;8.00;97.30;;;;;;5010324;28;20832;-90
2021/04/03 09:16:21;;;;;;;14.20;5.20;;;8.20;97.30;;;;;;5002635;28;20944;-90
2021/04/03 09:18:57;;;;;;;16.40;4.63;;;8.40;97.30;;;;;;5014309;28;20442;-90
2021/04/03 09:21:23;;;;;;;12.00;4.40;;;8.50;96.00;;;;;;5018993;28;20191;-91
2021/04/03 09:23:51;;;;;;;11.73;4.90;;;8.60;94.70;;;;;;5002000;28;20428;-91
2021/04/03 09:26:33;;;;;;;13.23;4.70;;;8.80;95.00;;;;;;5028857;28;20440;-89
2021/04/03 09:29:10;;;;;;;9.67;3.60;;;8.80;93.60;;;;;;5017054;28;20753;-90
2021/04/03 09:31:45;;;;;;;7.70;3.80;;;8.90;92.90;;;;;;5011397;28;20490;-90
2021/04/03 09:34:15;;;;;;;9.03;3.97;;;9.00;89.50;;;;;;5029649;28;20467;-89
2021/04/03 09:36:46;;;;;;;10.83;3.60;;;9.10;90.20;;;;;;5014366;28;20786;-89
2021/04/03 09:39:19;;;;;;;11.77;4.57;;;9.30;89.80;;;;;;5014245;28;20440;-90
2021/04/03 09:41:47;;;;;;;12.60;4.33;;;9.50;91.30;;;;;;5016538;28;20415;-89
2021/04/03 09:44:14;;;;;;;5.17;3.00;;;9.50;90.00;;;;;;5016325;28;20470;-90
2021/04/03 09:46:40;;;;;;;11.57;4.10;;;9.50;86.70;;;;;;5013122;28;20456;-89
2021/04/03 09:49:08;;;;;;;4.63;3.17;;;9.60;88.60;;;;;;5007516;28;20801;-90
2021/04/03 09:51:34;;;;;;;11.67;4.33;;;9.80;88.40;;;;;;5007165;28;20192;-90
2021/04/03 09:54:00;;;;;;;13.47;4.27;;;9.80;88.40;;;;;;5012278;28;20456;-91
2021/04/03 09:56:25;;;;;;;6.93;3.30;;;9.80;88.60;;;;;;5012678;28;20650;-88
2021/04/03 09:58:53;;;;;;;8.10;3.67;;;9.50;83.70;;;;;;5018311;28;20177;-90
2021/04/03 10:01:19;;;;;;;5.43;2.93;;;9.50;83.40;;;;;;5008821;28;20185;-90
2021/04/03 10:03:45;;;;;;;11.07;3.60;;;9.50;82.90;;;;;;5012359;28;20435;-89
2021/04/03 10:06:10;;;;;;;8.67;2.80;;;9.50;83.20;;;;;;5015417;28;20432;-89
2021/04/03 10:08:36;;;;;;;11.73;3.03;;;9.70;84.30;;;;;;5010113;28;20189;-90
2021/04/03 10:11:02;;;;;;;6.03;2.20;;;9.70;83.50;;;;;;5016962;28;20228;-88
2021/04/03 10:13:28;;;;;;;3.10;2.00;;;9.60;81.10;;;;;;5015694;28;20192;-88
2021/04/03 10:15:57;;;;;;;2.20;1.60;;;9.50;79.00;;;;;;5000298;28;20842;-90
2021/04/03 10:18:23;;;;;;;3.20;1.87;;;9.50;77.80;;;;;;4997724;28;20178;-89
2021/04/03 10:20:49;;;;;;;6.67;1.83;;;9.50;78.60;;;;;;5008154;28;20821;-89
2021/04/03 10:23:14;;;;;;;5.97;2.10;;;9.50;76.50;;;;;;5015050;28;20649;-90
2021/04/03 10:25:40;;;;;;;3.20;2.30;;;9.50;76.80;;;;;;5015546;28;20178;-90
2021/04/03 10:28:06;;;;;;;6.20;2.20;;;9.70;78.10;;;;;;5018843;28;20181;-89
2021/04/03 10:30:31;;;;;;;4.50;2.03;;;9.70;76.10;;;;;;5007618;28;20216;-89
2021/04/03 10:33:01;;;;;;;2.00;1.30;;;9.60;76.80;;;;;;5012535;28;20196;-89
2021/04/03 10:35:27;;;;;;;4.03;2.30;;;9.70;76.60;;;;;;5013501;28;20193;-90
2021/04/03 10:37:53;;;;;;;1.90;1.80;;;10.10;77.10;;;;;;5009264;28;20486;-89
2021/04/03 10:40:21;;;;;;;3.07;2.10;;;10.20;76.40;;;;;;5015235;28;20205;-90
2021/04/03 10:42:47;;;;;;;4.23;2.10;;;9.90;76.00;;;;;;5000933;28;20602;-91
2021/04/03 10:45:13;;;;;;;3.63;2.07;;;9.50;76.60;;;;;;5008357;28;20472;-89
2021/04/03 11:13:52;;;;;;;4.50;1.90;;;9.60;76.70;;;;;;5073303;23;20490;-77
2021/04/03 11:16:18;;;;;;;3.30;2.00;;;9.60;76.70;;;;;;5036409;28;20958;-77
2021/04/03 11:18:43;;;;;;;2.30;1.87;;;9.90;78.50;;;;;;5035529;28;20701;-76
2021/04/03 11:21:09;;;;;;;4.17;2.47;;;10.10;77.20;;;;;;5037234;28;20211;-76
2021/04/03 11:23:35;;;;;;;4.20;2.70;;;10.30;76.10;;;;;;5074349;28;20202;-76
2021/04/03 11:26:01;;;;;;;5.17;2.43;;;10.30;76.20;;;;;;5055844;28;20509;-75
2021/04/03 11:28:33;;;;;;;9.57;3.20;;;10.20;75.60;;;;;;5050974;28;20418;-79
2021/04/03 11:30:59;;;;;;;10.83;4.33;;;10.30;75.90;;;;;;5060562;28;21040;-78
2021/04/03 11:33:26;;;;;;;5.50;2.60;;;10.20;76.80;;;;;;5042687;28;20434;-78
2021/04/03 11:36:00;;;;;;;3.40;2.13;;;10.10;77.20;;;;;;5049428;28;20180;-79
2021/04/03 11:38:32;;;;;;;6.20;3.30;;;9.90;76.30;;;;;;5052652;28;20415;-78
2021/04/03 11:41:15;;;;;;;10.83;3.07;;;9.60;76.70;;;;;;5043276;28;20524;-78
2021/04/03 11:43:42;;;;;;;8.00;3.17;;;9.50;77.80;;;;;;5046114;28;20924;-77
2021/04/03 11:46:09;;;;;;;10.17;3.70;;;9.60;78.50;;;;;;5049632;28;20411;-78
2021/04/03 11:48:34;;;;;;;5.83;2.37;;;9.60;78.10;;;;;;5044124;28;20786;-77
2021/04/03 11:51:00;;;;;;;13.83;4.30;;;9.80;78.90;;;;;;5043776;28;20445;-77
2021/04/03 11:53:26;;;;;;;8.70;3.30;;;10.10;80.70;;;;;;5047495;28;20699;-80
2021/04/03 11:55:52;;;;;;;6.50;3.20;;;10.30;78.90;;;;;;5045765;28;20203;-78
2021/04/03 11:58:18;;;;;;;4.80;2.70;;;10.30;80.30;;;;;;5042749;28;20255;-77
2021/04/03 12:00:45;;;;;;;5.10;2.40;;;10.20;78.50;;;;;;5042937;28;20640;-78
2021/04/03 12:03:11;;;;;;;3.90;2.70;;;10.00;78.20;;;;;;5045659;28;20179;-78
2021/04/03 12:05:37;;;;;;;4.70;2.07;;;9.90;78.30;;;;;;5063935;28;20777;-77
2021/04/03 12:08:03;;;;;;;6.00;2.57;;;9.80;79.90;;;;;;5065895;28;20172;-77
2021/04/03 12:10:28;;;;;;;3.37;2.30;;;9.80;78.30;;;;;;5040507;28;20175;-75
2021/04/03 12:12:54;;;;;;;7.53;2.40;;;10.00;79.20;;;;;;5045888;28;20227;-78
2021/04/03 12:15:20;;;;;;;5.87;2.60;;;10.60;79.80;;;;;;5065344;28;20212;-76
2021/04/03 12:17:46;;;;;;;5.40;1.87;;;10.70;78.50;;;;;;5040527;28;20185;-77
2021/04/03 12:20:15;;;;;;;7.93;2.40;;;10.50;77.70;;;;;;5042700;28;20423;-78
2021/04/03 12:22:44;;;;;;;4.67;2.67;;;10.70;77.80;;;;;;5044532;28;20170;-77
2021/04/03 12:25:10;;;;;;;5.30;2.53;;;10.60;77.20;;;;;;5037921;28;20422;-77
2021/04/03 12:27:36;;;;;;;3.30;2.20;;;10.60;77.60;;;;;;5040790;28;20544;-77
2021/04/03 12:30:03;;;;;;;4.43;2.70;;;11.00;76.50;;;;;;5063636;28;20474;-78
2021/04/03 12:32:30;;;;;;;5.50;2.37;;;11.20;75.40;;;;;;5055394;28;20456;-77
2021/04/03 12:34:56;;;;;;;6.20;2.30;;;11.00;74.70;;;;;;5049568;28;20479;-75
2021/04/03 12:37:21;;;;;;;3.93;2.27;;;10.70;73.90;;;;;;5073564;28;20428;-76
2021/04/03 12:39:47;;;;;;;7.33;2.17;;;10.30;74.10;;;;;;5045368;28;20198;-76
2021/04/03 12:42:13;;;;;;;3.07;2.07;;;10.20;74.80;;;;;;5043915;28;20196;-76
2021/04/03 12:44:42;;;;;;;3.30;1.77;;;11.00;75.50;;;;;;5063788;28;20417;-76
2021/04/03 12:47:08;;;;;;;3.73;2.53;;;11.40;73.50;;;;;;5044815;28;20217;-77
2021/04/03 12:49:34;;;;;;;3.20;2.27;;;11.60;72.50;;;;;;5057044;28;20422;-77
2021/04/03 12:52:00;;;;;;;4.70;1.80;;;11.60;72.20;;;;;;5038426;28;20549;-78
2021/04/03 12:54:26;;;;;;;3.93;1.90;;;11.90;73.00;;;;;;5043071;28;20543;-76
2021/04/03 12:56:52;;;;;;;6.23;2.10;;;12.40;72.70;;;;;;5047233;28;20168;-80
2021/04/03 12:59:19;;;;;;;2.90;2.10;;;12.50;71.30;;;;;;5041885;28;20437;-77
2021/04/03 13:01:45;;;;;;;3.23;2.07;;;12.50;72.30;;;;;;5055292;28;20278;-77
2021/04/03 13:04:11;;;;;;;2.70;1.90;;;12.50;70.80;;;;;;5047255;28;20418;-82
2021/04/03 13:06:37;;;;;;;3.77;2.50;;;12.70;71.00;;;;;;5077009;28;20414;-78
2021/04/03 13:09:04;;;;;;;3.27;1.77;;;12.40;68.10;;;;;;5059619;28;20168;-79
2021/04/03 13:11:30;;;;;;;3.00;1.67;;;12.50;69.30;;;;;;5058213;28;20476;-81
2021/04/03 13:13:57;;;;;;;2.30;1.90;;;12.70;69.20;;;;;;5058378;28;20505;-80
2021/04/03 13:16:23;;;;;;;2.50;1.63;;;12.20;68.00;;;;;;5056137;28;20406;-83
2021/04/03 13:18:48;;;;;;;2.50;1.50;;;11.30;68.60;;;;;;5048484;28;20411;-80
2021/04/03 13:21:16;;;;;;;4.23;2.23;;;11.50;69.00;;;;;;5044253;28;20461;-79
2021/04/03 13:23:43;;;;;;;2.43;1.60;;;12.00;69.00;;;;;;5056031;28;20203;-80
2021/04/03 13:26:09;;;;;;;6.23;1.90;;;12.60;68.80;;;;;;5054121;28;20410;-80
2021/04/03 13:28:34;;;;;;;5.50;1.90;;;13.00;68.50;;;;;;5042099;28;20409;-77
2021/04/03 13:31:00;;;;;;;2.87;1.80;;;13.20;66.80;;;;;;5053545;28;20199;-79
2021/04/03 13:33:26;;;;;;;2.87;2.03;;;13.40;65.90;;;;;;5048721;28;20229;-79